Duluth, Kansas
Current Conditions -  °F | °C
As of 11:29 AM on Sunday 23 Nov 2014 (Local Time) from KMHK Reporting Station
Overcast Overcast  
Wind Chill: 56°   Ceiling: 6000
Heat Index: 56°   Visibility: 10mi
Dew Point: 53°   Wind: 6mph
Humidity: 90%   Direction: 270°W
Pressure: 29.43"   Gusts: NA
Location:  39.4299°N, 96.1804°W
Report Text: KMHK 231729Z 27005KT 10SM FEW009 SCT018 OVC060 13/12 A2943 RMK AO2 T01330117
Loading
Personal Weather Stations






























Interactive Weather Map New forecast layout! Learn more

10-Day Weather Forecast

Advertisements
Track Severe Weather on mobile